createdAt,value
2019-05-26T00:01:20.313Z,11.37
2019-05-26T00:04:09.493Z,11.10
2019-05-26T00:06:59.101Z,10.53
2019-05-26T00:09:48.242Z,10.13
2019-05-26T00:12:37.576Z,10.70
2019-05-26T00:15:26.303Z,10.90
2019-05-26T00:18:15.756Z,10.90
2019-05-26T00:21:04.441Z,10.90
2019-05-26T00:23:56.186Z,10.10
2019-05-26T00:26:43.897Z,10.90
2019-05-26T00:29:33.865Z,10.77
2019-05-26T00:32:23.118Z,12.10
2019-05-26T00:35:12.453Z,12.10
2019-05-26T00:38:01.781Z,11.93
2019-05-26T00:40:51.563Z,12.40
2019-05-26T00:43:40.452Z,13.00
2019-05-26T00:46:29.464Z,13.97
2019-05-26T00:49:19.210Z,14.00
2019-05-26T00:52:07.718Z,14.03
2019-05-26T00:54:56.887Z,14.13
2019-05-26T00:57:45.963Z,14.33
2019-05-26T01:00:42.258Z,15.00
2019-05-26T01:03:31.314Z,15.73
2019-05-26T01:06:21.328Z,16.03
2019-05-26T01:09:11.316Z,16.00
2019-05-26T01:12:00.822Z,16.20
2019-05-26T01:14:49.567Z,16.87
2019-05-26T01:17:38.838Z,17.57
2019-05-26T01:20:28.133Z,17.60
2019-05-26T01:23:17.588Z,17.03
2019-05-26T01:26:07.254Z,17.47
2019-05-26T01:28:56.917Z,18.07
2019-05-26T01:31:46.555Z,17.43
2019-05-26T01:34:35.639Z,18.33
2019-05-26T01:37:25.259Z,19.00
2019-05-26T01:40:14.334Z,19.90
2019-05-26T01:43:03.135Z,18.10
2019-05-26T01:45:52.834Z,20.50
2019-05-26T01:48:41.709Z,22.63
2019-05-26T01:51:31.153Z,22.13
2019-05-26T01:54:19.764Z,22.37
2019-05-26T01:57:09.085Z,21.83
2019-05-26T01:59:58.093Z,23.00
2019-05-26T02:02:47.196Z,24.27
2019-05-26T02:05:36.778Z,23.60
2019-05-26T02:08:38.333Z,24.43
2019-05-26T02:11:16.713Z,26.03
2019-05-26T02:14:05.949Z,25.70
2019-05-26T02:16:55.349Z,25.53
2019-05-26T02:19:44.251Z,25.77
2019-05-26T02:22:33.543Z,25.60
2019-05-26T02:25:23.269Z,26.63
2019-05-26T02:28:12.493Z,26.67
2019-05-26T02:31:02.015Z,25.40
2019-05-26T02:33:51.412Z,27.63
2019-05-26T02:36:40.261Z,28.77
2019-05-26T02:39:30.107Z,29.33
2019-05-26T02:42:19.786Z,29.33
2019-05-26T02:45:11.102Z,29.40
2019-05-26T02:48:00.014Z,31.40
2019-05-26T02:50:48.939Z,29.70
2019-05-26T02:53:38.204Z,29.83
2019-05-26T02:56:27.654Z,30.40
2019-05-26T02:59:17.182Z,30.50
2019-05-26T03:02:05.967Z,29.90
2019-05-26T03:04:55.050Z,32.27
2019-05-26T03:07:45.060Z,31.50
2019-05-26T03:10:35.123Z,32.60
2019-05-26T03:13:24.149Z,33.03
2019-05-26T03:16:14.136Z,35.50
2019-05-26T03:19:05.868Z,32.73
2019-05-26T03:21:57.301Z,34.47
2019-05-26T03:24:49.143Z,35.57
2019-05-26T03:27:37.939Z,35.50
2019-05-26T03:30:26.822Z,35.80
2019-05-26T03:33:16.045Z,37.13
2019-05-26T03:36:05.384Z,34.63
2019-05-26T03:38:54.332Z,38.30
2019-05-26T03:41:43.727Z,40.20
2019-05-26T03:44:33.108Z,42.53
2019-05-26T03:47:22.294Z,48.03
2019-05-26T03:50:11.462Z,57.67
2019-05-26T03:53:01.113Z,56.73
2019-05-26T03:55:50.076Z,60.03
2019-05-26T03:58:39.505Z,60.40
2019-05-26T04:01:29.379Z,56.60
2019-05-26T04:04:17.880Z,58.43
2019-05-26T04:07:07.059Z,53.07
2019-05-26T04:10:04.636Z,53.47
2019-05-26T04:12:47.440Z,51.57
2019-05-26T04:15:36.948Z,48.83
2019-05-26T04:18:26.402Z,45.37
2019-05-26T04:21:15.234Z,45.63
2019-05-26T04:24:04.127Z,45.50
2019-05-26T04:26:53.809Z,41.93
2019-05-26T04:29:42.855Z,39.10
2019-05-26T04:32:31.708Z,37.50
2019-05-26T04:35:21.088Z,37.23
2019-05-26T04:38:10.037Z,38.03
2019-05-26T04:40:58.861Z,37.90
2019-05-26T04:43:47.297Z,38.43
2019-05-26T04:46:36.945Z,39.53
2019-05-26T04:49:26.589Z,38.87
2019-05-26T04:52:15.337Z,39.67
2019-05-26T04:55:04.816Z,40.87
2019-05-26T04:57:54.412Z,40.30
2019-05-26T05:00:43.135Z,39.20
2019-05-26T05:03:32.599Z,43.00
2019-05-26T05:06:21.460Z,42.60
2019-05-26T05:09:10.356Z,42.53
2019-05-26T05:11:59.621Z,41.70
2019-05-26T05:14:48.842Z,42.87
2019-05-26T05:17:38.002Z,42.20
2019-05-26T05:20:27.043Z,43.50
2019-05-26T05:23:16.276Z,39.83
2019-05-26T05:26:06.159Z,40.10
2019-05-26T05:28:55.470Z,42.20
2019-05-26T05:31:45.082Z,42.60
2019-05-26T05:34:34.622Z,41.37
2019-05-26T05:37:25.294Z,43.13
2019-05-26T05:40:15.308Z,40.47
2019-05-26T05:43:05.038Z,40.70
2019-05-26T05:45:54.085Z,39.83
2019-05-26T05:48:43.028Z,38.87
2019-05-26T05:51:32.173Z,41.77
2019-05-26T05:54:21.034Z,39.40
2019-05-26T05:57:10.178Z,38.63
2019-05-26T05:59:59.694Z,39.50
2019-05-26T06:02:48.414Z,39.00
2019-05-26T06:05:37.556Z,37.90
2019-05-26T06:08:27.450Z,37.40
2019-05-26T06:11:17.381Z,37.20
2019-05-26T06:14:07.078Z,37.60
2019-05-26T06:16:56.183Z,39.20
2019-05-26T06:19:45.308Z,37.90
2019-05-26T06:22:34.669Z,38.47
2019-05-26T06:25:24.262Z,36.40
2019-05-26T06:28:13.486Z,36.83
2019-05-26T06:31:02.826Z,36.13
2019-05-26T06:33:52.450Z,37.53
2019-05-26T06:36:42.426Z,37.30
2019-05-26T06:39:31.151Z,34.60
2019-05-26T06:42:20.486Z,34.30
2019-05-26T06:45:10.107Z,31.80
2019-05-26T06:47:59.590Z,33.30
2019-05-26T06:50:48.415Z,29.73
2019-05-26T06:53:37.739Z,33.07
2019-05-26T06:56:26.298Z,30.37
2019-05-26T06:59:15.250Z,30.10
2019-05-26T07:02:04.621Z,29.70
2019-05-26T07:04:53.423Z,29.47
2019-05-26T07:07:43.526Z,30.20
2019-05-26T07:10:33.030Z,29.90
2019-05-26T07:13:22.676Z,28.77
2019-05-26T07:16:12.062Z,29.57
2019-05-26T07:19:01.467Z,31.80
2019-05-26T07:21:50.805Z,31.00
2019-05-26T07:24:39.825Z,30.07
2019-05-26T07:27:29.517Z,29.13
2019-05-26T07:30:22.761Z,27.07
2019-05-26T07:33:09.296Z,25.70
2019-05-26T07:35:58.601Z,23.83
2019-05-26T07:38:47.332Z,23.57
2019-05-26T07:41:36.884Z,21.97
2019-05-26T07:44:25.890Z,21.20
2019-05-26T07:47:15.332Z,21.70
2019-05-26T07:50:03.979Z,19.60
2019-05-26T07:52:53.571Z,17.90
2019-05-26T07:55:42.744Z,17.57
2019-05-26T07:58:31.597Z,18.80
2019-05-26T08:01:24.195Z,18.23
2019-05-26T08:04:11.612Z,17.33
2019-05-26T08:07:00.997Z,17.63
2019-05-26T08:09:50.402Z,16.70
2019-05-26T08:12:39.698Z,16.30
2019-05-26T08:15:29.380Z,15.43
2019-05-26T08:18:18.948Z,16.60
2019-05-26T08:21:07.926Z,16.30
2019-05-26T08:23:57.300Z,14.23
2019-05-26T08:26:46.770Z,14.27
2019-05-26T08:29:35.908Z,13.37
2019-05-26T08:32:25.547Z,13.23
2019-05-26T08:35:14.677Z,13.10
2019-05-26T08:38:04.107Z,11.90
2019-05-26T08:40:52.994Z,11.70
2019-05-26T08:43:41.555Z,10.73
2019-05-26T08:46:30.616Z,10.50
2019-05-26T08:49:19.125Z,10.87
2019-05-26T08:52:08.477Z,10.97
2019-05-26T08:54:57.686Z,11.23
2019-05-26T08:57:47.016Z,9.97
2019-05-26T09:00:36.498Z,9.40
2019-05-26T09:03:24.962Z,8.97
2019-05-26T09:06:14.664Z,9.20
2019-05-26T09:09:04.601Z,8.17
2019-05-26T09:11:54.629Z,7.63
2019-05-26T09:14:43.101Z,7.33
2019-05-26T09:17:32.750Z,7.00
2019-05-26T09:20:22.772Z,6.90
2019-05-26T09:23:11.869Z,6.80
2019-05-26T09:26:01.087Z,7.13
2019-05-26T09:28:50.159Z,5.73
2019-05-26T09:31:39.357Z,5.83
2019-05-26T09:34:28.312Z,6.13
2019-05-26T09:37:17.647Z,5.93
2019-05-26T09:40:07.791Z,6.40
2019-05-26T09:42:56.512Z,6.57
2019-05-26T09:45:45.399Z,6.90
2019-05-26T09:48:34.199Z,6.00
2019-05-26T09:51:24.052Z,6.20
2019-05-26T09:54:13.910Z,6.20
2019-05-26T09:57:03.352Z,6.10
2019-05-26T09:59:53.163Z,5.93
2019-05-26T10:02:42.003Z,6.03
2019-05-26T10:05:31.815Z,5.77
2019-05-26T10:08:21.487Z,5.07
2019-05-26T10:11:10.485Z,5.80
2019-05-26T10:13:59.942Z,5.30
2019-05-26T10:16:49.519Z,4.93
2019-05-26T10:19:39.227Z,4.53
2019-05-26T10:22:28.523Z,4.90
2019-05-26T10:25:17.878Z,4.80
2019-05-26T10:28:07.419Z,4.67
2019-05-26T10:30:56.577Z,4.40
2019-05-26T10:33:46.305Z,4.90
2019-05-26T10:36:35.561Z,4.70
2019-05-26T10:39:25.117Z,4.80
2019-05-26T10:42:14.191Z,4.80
2019-05-26T10:45:04.292Z,4.77
2019-05-26T10:47:53.170Z,5.10
2019-05-26T10:50:42.876Z,4.50
2019-05-26T10:53:31.852Z,4.70
2019-05-26T10:56:21.582Z,4.60
2019-05-26T10:59:10.746Z,3.90
2019-05-26T11:01:59.866Z,4.50
2019-05-26T11:04:49.224Z,4.70
2019-05-26T11:07:40.311Z,4.67
2019-05-26T11:10:29.989Z,4.93
2019-05-26T11:13:19.702Z,4.63
2019-05-26T11:16:08.753Z,5.30
2019-05-26T11:18:58.515Z,5.07
2019-05-26T11:21:47.311Z,4.93
2019-05-26T11:24:36.060Z,4.90
2019-05-26T11:27:25.169Z,5.30
2019-05-26T11:30:14.503Z,4.73
2019-05-26T11:33:03.969Z,5.10
2019-05-26T11:35:53.194Z,5.40
2019-05-26T11:38:42.619Z,5.07
2019-05-26T11:41:32.686Z,5.27
2019-05-26T11:44:21.452Z,5.33
2019-05-26T11:47:11.086Z,4.97
2019-05-26T11:50:00.417Z,5.43
2019-05-26T11:52:49.957Z,4.90
2019-05-26T11:55:39.583Z,5.70
2019-05-26T11:58:29.234Z,5.47
2019-05-26T12:01:22.077Z,6.00
2019-05-26T12:04:09.715Z,5.57
2019-05-26T12:06:59.370Z,5.87
2019-05-26T12:09:49.018Z,5.60
2019-05-26T12:12:38.523Z,5.47
2019-05-26T12:15:28.231Z,5.80
2019-05-26T12:18:17.711Z,5.53
2019-05-26T12:21:07.426Z,6.40
2019-05-26T12:23:56.530Z,6.00
2019-05-26T12:26:46.108Z,5.57
2019-05-26T12:29:37.126Z,5.80
2019-05-26T12:32:26.098Z,6.00
2019-05-26T12:35:16.072Z,6.23
2019-05-26T12:38:05.786Z,6.27
2019-05-26T12:40:55.480Z,5.97
2019-05-26T12:43:45.176Z,6.50
2019-05-26T12:46:35.362Z,5.77
2019-05-26T12:49:27.680Z,5.40
2019-05-26T12:52:16.097Z,6.10
2019-05-26T12:55:08.979Z,5.70
2019-05-26T12:57:57.426Z,5.93
2019-05-26T13:00:50.767Z,5.80
2019-05-26T13:03:38.117Z,5.83
2019-05-26T13:06:27.127Z,5.90
2019-05-26T13:09:16.772Z,5.30
2019-05-26T13:12:05.597Z,6.20
2019-05-26T13:15:05.531Z,5.83
2019-05-26T13:17:45.636Z,6.27
2019-05-26T13:20:34.850Z,6.37
2019-05-26T13:23:24.175Z,5.43
2019-05-26T13:26:13.782Z,5.20
2019-05-26T13:29:03.090Z,5.40
2019-05-26T13:31:52.699Z,5.87
2019-05-26T13:34:42.840Z,6.00
2019-05-26T13:37:32.515Z,6.70
2019-05-26T13:40:22.465Z,6.33
2019-05-26T13:43:11.118Z,6.07
2019-05-26T13:46:00.776Z,5.87
2019-05-26T13:48:49.925Z,6.10
2019-05-26T13:51:39.070Z,5.67
2019-05-26T13:54:28.104Z,5.67
2019-05-26T13:57:20.025Z,6.17
2019-05-26T14:00:10.828Z,6.00
2019-05-26T14:03:00.719Z,5.97
2019-05-26T14:05:50.190Z,5.90
2019-05-26T14:08:41.209Z,5.50
2019-05-26T14:11:30.081Z,6.03
2019-05-26T14:14:19.355Z,5.70
2019-05-26T14:17:08.589Z,5.40
2019-05-26T14:20:00.652Z,5.30
2019-05-26T14:22:50.047Z,5.20
2019-05-26T14:25:39.577Z,6.13
2019-05-26T14:28:29.606Z,5.30
2019-05-26T14:31:19.357Z,6.00
2019-05-26T14:34:08.568Z,6.20
2019-05-26T14:36:58.785Z,5.60
2019-05-26T14:39:49.961Z,5.50
2019-05-26T14:42:38.552Z,5.97
2019-05-26T14:45:28.094Z,5.30
2019-05-26T14:48:17.638Z,6.03
2019-05-26T14:51:07.220Z,5.97
2019-05-26T14:53:56.443Z,5.60
2019-05-26T14:56:47.383Z,5.90
2019-05-26T14:59:37.062Z,5.80
2019-05-26T15:02:27.071Z,5.40
2019-05-26T15:05:18.141Z,5.30
2019-05-26T15:08:07.438Z,4.80
2019-05-26T15:10:55.919Z,5.67
2019-05-26T15:13:45.165Z,5.37
2019-05-26T15:16:34.545Z,5.20
2019-05-26T15:19:25.265Z,5.67
2019-05-26T15:22:14.483Z,6.20
2019-05-26T15:25:04.139Z,5.80
2019-05-26T15:27:53.461Z,6.37
2019-05-26T15:30:42.250Z,6.40
2019-05-26T15:33:31.575Z,6.37
2019-05-26T15:36:20.326Z,7.03
2019-05-26T15:39:11.098Z,6.27
2019-05-26T15:42:01.164Z,5.97
2019-05-26T15:44:52.508Z,6.60
2019-05-26T15:47:42.305Z,7.10
2019-05-26T15:50:31.340Z,6.60
2019-05-26T15:53:20.272Z,6.73
2019-05-26T15:56:09.885Z,6.53
2019-05-26T15:58:59.027Z,6.10
2019-05-26T16:01:48.365Z,7.30
2019-05-26T16:04:39.594Z,7.23
2019-05-26T16:07:29.515Z,6.90
2019-05-26T16:10:18.915Z,7.10
2019-05-26T16:13:08.368Z,6.30
2019-05-26T16:15:57.416Z,7.10
2019-05-26T16:18:46.680Z,7.03
2019-05-26T16:21:36.135Z,6.93
2019-05-26T16:24:25.565Z,6.30
2019-05-26T16:27:19.032Z,6.20
2019-05-26T16:30:06.157Z,7.00
2019-05-26T16:32:55.716Z,6.70
2019-05-26T16:35:44.408Z,6.30
2019-05-26T16:38:33.596Z,6.03
2019-05-26T16:41:22.668Z,6.50
2019-05-26T16:44:13.661Z,6.20
2019-05-26T16:47:02.409Z,6.90
2019-05-26T16:49:51.449Z,6.17
2019-05-26T16:52:41.082Z,6.30
2019-05-26T16:55:30.790Z,6.40
2019-05-26T16:58:20.123Z,6.40
2019-05-26T17:01:10.267Z,6.73
2019-05-26T17:04:00.237Z,6.93
2019-05-26T17:06:50.050Z,6.83
2019-05-26T17:09:39.704Z,6.80
2019-05-26T17:12:29.495Z,7.27
2019-05-26T17:15:18.858Z,7.60
2019-05-26T17:18:08.362Z,6.40
2019-05-26T17:20:58.627Z,6.53
2019-05-26T17:23:47.960Z,6.27
2019-05-26T17:26:37.353Z,6.90
2019-05-26T17:29:26.084Z,6.80
2019-05-26T17:32:16.156Z,6.80
2019-05-26T17:35:05.368Z,6.27
2019-05-26T17:37:54.916Z,6.40
2019-05-26T17:40:43.942Z,6.10
2019-05-26T17:43:33.282Z,6.50
2019-05-26T17:46:22.582Z,5.83
2019-05-26T17:49:11.909Z,6.80
2019-05-26T17:52:01.600Z,6.50
2019-05-26T17:54:50.843Z,6.30
2019-05-26T17:57:39.770Z,6.30
2019-05-26T18:00:28.528Z,6.13
2019-05-26T18:03:17.574Z,5.87
2019-05-26T18:06:07.042Z,6.27
2019-05-26T18:08:56.468Z,6.77
2019-05-26T18:11:45.675Z,6.57
2019-05-26T18:14:34.780Z,6.90
2019-05-26T18:17:23.361Z,9.67
2019-05-26T18:20:13.148Z,7.13
2019-05-26T18:23:02.594Z,7.57
2019-05-26T18:25:51.943Z,11.10
2019-05-26T18:28:40.777Z,13.73
2019-05-26T18:31:30.560Z,11.80
2019-05-26T18:34:19.459Z,11.67
2019-05-26T18:37:09.261Z,9.90
2019-05-26T18:39:58.522Z,9.17
2019-05-26T18:42:48.035Z,7.93
2019-05-26T18:45:37.456Z,7.67
2019-05-26T18:48:27.213Z,7.27
2019-05-26T18:51:16.351Z,7.20
2019-05-26T18:54:05.438Z,6.23
2019-05-26T18:56:54.616Z,6.27
2019-05-26T18:59:44.150Z,6.30
2019-05-26T19:02:33.069Z,6.07
2019-05-26T19:05:32.941Z,6.17
2019-05-26T19:08:13.120Z,6.23
2019-05-26T19:11:02.624Z,5.90
2019-05-26T19:13:52.142Z,5.93
2019-05-26T19:16:41.346Z,5.80
2019-05-26T19:19:30.934Z,6.10
2019-05-26T19:22:20.569Z,5.60
2019-05-26T19:25:10.216Z,5.80
2019-05-26T19:28:00.336Z,5.57
2019-05-26T19:30:49.771Z,6.03
2019-05-26T19:33:39.393Z,4.93
2019-05-26T19:36:29.045Z,5.30
2019-05-26T19:39:18.637Z,5.43
2019-05-26T19:42:07.976Z,5.73
2019-05-26T19:44:56.847Z,5.27
2019-05-26T19:47:46.410Z,5.60
2019-05-26T19:50:35.704Z,5.30
2019-05-26T19:53:25.094Z,4.80
2019-05-26T19:56:14.908Z,4.57
2019-05-26T19:59:04.473Z,4.57
2019-05-26T20:01:53.348Z,4.90
2019-05-26T20:04:42.268Z,5.27
2019-05-26T20:07:31.461Z,5.17
2019-05-26T20:10:20.758Z,4.13
2019-05-26T20:13:09.533Z,5.40
2019-05-26T20:15:58.709Z,5.30
2019-05-26T20:18:48.146Z,5.57
2019-05-26T20:21:37.991Z,5.20
2019-05-26T20:24:27.216Z,4.80
2019-05-26T20:27:16.579Z,6.20
2019-05-26T20:30:06.118Z,5.87
2019-05-26T20:32:55.793Z,6.67
2019-05-26T20:35:45.039Z,6.13
2019-05-26T20:38:34.439Z,7.40
2019-05-26T20:41:23.740Z,8.63
2019-05-26T20:44:13.008Z,8.10
2019-05-26T20:47:03.136Z,8.27
2019-05-26T20:49:53.013Z,8.00
2019-05-26T20:52:42.312Z,8.20
2019-05-26T20:55:32.013Z,8.30
2019-05-26T20:58:24.473Z,8.30
2019-05-26T21:01:13.510Z,7.20
2019-05-26T21:04:02.623Z,8.00
2019-05-26T21:06:52.036Z,7.80
2019-05-26T21:09:41.520Z,8.17
2019-05-26T21:12:31.208Z,7.73
2019-05-26T21:15:21.506Z,8.00
2019-05-26T21:18:10.972Z,8.17
2019-05-26T21:21:00.236Z,8.47
2019-05-26T21:23:49.770Z,8.33
2019-05-26T21:26:38.700Z,7.80
2019-05-26T21:29:28.566Z,8.33
2019-05-26T21:32:18.082Z,8.87
2019-05-26T21:35:07.618Z,8.20
2019-05-26T21:37:57.513Z,8.93
2019-05-26T21:40:46.830Z,8.67
2019-05-26T21:43:36.052Z,9.00
2019-05-26T21:46:25.748Z,8.73
2019-05-26T21:49:14.994Z,8.43
2019-05-26T21:52:04.588Z,8.00
2019-05-26T21:54:54.163Z,7.40
2019-05-26T21:57:43.840Z,7.13
2019-05-26T22:00:37.729Z,6.90
2019-05-26T22:03:26.802Z,7.97
2019-05-26T22:06:19.681Z,7.50
2019-05-26T22:09:08.075Z,6.90
2019-05-26T22:11:57.299Z,6.97
2019-05-26T22:14:46.887Z,7.47
2019-05-26T22:17:35.851Z,7.60
2019-05-26T22:20:25.237Z,7.50
2019-05-26T22:23:15.344Z,7.43
2019-05-26T22:26:04.679Z,7.30
2019-05-26T22:28:53.521Z,7.60
2019-05-26T22:31:43.390Z,7.20
2019-05-26T22:34:32.615Z,7.73
2019-05-26T22:37:22.237Z,8.07
2019-05-26T22:40:11.816Z,7.43
2019-05-26T22:43:01.167Z,7.37
2019-05-26T22:45:50.596Z,6.90
2019-05-26T22:48:39.358Z,6.73
2019-05-26T22:51:28.387Z,7.27
2019-05-26T22:54:17.521Z,6.87
2019-05-26T22:57:07.698Z,6.60
2019-05-26T22:59:57.067Z,7.57
2019-05-26T23:02:46.746Z,6.90
2019-05-26T23:05:36.273Z,7.37
2019-05-26T23:08:25.925Z,7.67
2019-05-26T23:11:14.974Z,7.30
2019-05-26T23:14:04.246Z,6.90
2019-05-26T23:16:53.655Z,7.30
2019-05-26T23:19:42.922Z,7.37
2019-05-26T23:22:31.810Z,6.70
2019-05-26T23:25:20.941Z,6.60
2019-05-26T23:28:10.318Z,6.80
2019-05-26T23:30:59.476Z,7.33
2019-05-26T23:33:48.619Z,7.30
2019-05-26T23:36:37.539Z,7.67
2019-05-26T23:39:26.881Z,7.53
2019-05-26T23:42:16.078Z,7.10
2019-05-26T23:45:05.627Z,7.47
2019-05-26T23:47:54.649Z,7.80
2019-05-26T23:50:43.841Z,8.00
2019-05-26T23:53:32.256Z,8.17
2019-05-26T23:56:21.242Z,8.73
2019-05-26T23:59:09.979Z,8.90
